sensor_id;sensor_type;location;lat;lon;timestamp;temperature;humidity
65637;DHT22;52327;42.622;23.316;2023-08-01T00:01:49;20.20;65.93
65637;DHT22;52327;42.622;23.316;2023-08-01T00:04:14;20.06;66.46
65637;DHT22;52327;42.622;23.316;2023-08-01T00:06:41;19.93;66.73
65637;DHT22;52327;42.622;23.316;2023-08-01T00:09:07;19.89;67.09
65637;DHT22;52327;42.622;23.316;2023-08-01T00:11:32;19.76;67.14
65637;DHT22;52327;42.622;23.316;2023-08-01T00:13:57;19.73;67.12
65637;DHT22;52327;42.622;23.316;2023-08-01T00:16:23;19.79;66.83
65637;DHT22;52327;42.622;23.316;2023-08-01T00:18:49;19.72;67.22
65637;DHT22;52327;42.622;23.316;2023-08-01T00:21:15;19.62;67.35
65637;DHT22;52327;42.622;23.316;2023-08-01T00:23:40;19.54;67.98
65637;DHT22;52327;42.622;23.316;2023-08-01T00:26:06;19.42;68.05
65637;DHT22;52327;42.622;23.316;2023-08-01T00:28:31;19.42;68.11
65637;DHT22;52327;42.622;23.316;2023-08-01T00:31:07;19.44;68.14
65637;DHT22;52327;42.622;23.316;2023-08-01T00:33:36;19.51;67.94
65637;DHT22;52327;42.622;23.316;2023-08-01T00:36:02;19.36;67.97
65637;DHT22;52327;42.622;23.316;2023-08-01T00:38:28;19.38;68.31
65637;DHT22;52327;42.622;23.316;2023-08-01T00:40:54;19.30;68.46
65637;DHT22;52327;42.622;23.316;2023-08-01T00:43:19;19.21;68.74
65637;DHT22;52327;42.622;23.316;2023-08-01T00:45:45;19.22;68.64
65637;DHT22;52327;42.622;23.316;2023-08-01T00:48:11;19.24;68.81
65637;DHT22;52327;42.622;23.316;2023-08-01T00:50:38;19.34;68.15
65637;DHT22;52327;42.622;23.316;2023-08-01T00:53:04;19.21;68.09
65637;DHT22;52327;42.622;23.316;2023-08-01T00:55:32;19.25;68.09
65637;DHT22;52327;42.622;23.316;2023-08-01T00:57:57;19.31;68.00
65637;DHT22;52327;42.622;23.316;2023-08-01T01:00:23;19.31;68.06
65637;DHT22;52327;42.622;23.316;2023-08-01T01:02:49;19.21;68.27
65637;DHT22;52327;42.622;23.316;2023-08-01T01:05:14;19.14;68.67
65637;DHT22;52327;42.622;23.316;2023-08-01T01:07:41;19.08;68.77
65637;DHT22;52327;42.622;23.316;2023-08-01T01:10:07;19.12;68.56
65637;DHT22;52327;42.622;23.316;2023-08-01T01:12:32;19.21;68.42
65637;DHT22;52327;42.622;23.316;2023-08-01T01:14:58;19.39;67.75
65637;DHT22;52327;42.622;23.316;2023-08-01T01:17:23;19.25;68.27
65637;DHT22;52327;42.622;23.316;2023-08-01T01:19:49;19.17;68.42
65637;DHT22;52327;42.622;23.316;2023-08-01T01:22:15;19.15;68.53
65637;DHT22;52327;42.622;23.316;2023-08-01T01:24:42;19.28;68.56
65637;DHT22;52327;42.622;23.316;2023-08-01T01:27:08;19.24;69.12
65637;DHT22;52327;42.622;23.316;2023-08-01T01:29:34;19.41;68.16
65637;DHT22;52327;42.622;23.316;2023-08-01T01:32:01;19.42;67.91
65637;DHT22;52327;42.622;23.316;2023-08-01T01:34:28;19.39;67.82
65637;DHT22;52327;42.622;23.316;2023-08-01T01:36:53;19.25;68.74
65637;DHT22;52327;42.622;23.316;2023-08-01T01:39:19;19.41;68.15
65637;DHT22;52327;42.622;23.316;2023-08-01T01:41:45;19.47;68.17
65637;DHT22;52327;42.622;23.316;2023-08-01T01:44:11;19.44;68.60
65637;DHT22;52327;42.622;23.316;2023-08-01T01:46:36;19.41;68.81
65637;DHT22;52327;42.622;23.316;2023-08-01T01:49:02;19.44;68.73
65637;DHT22;52327;42.622;23.316;2023-08-01T01:51:28;19.45;68.46
65637;DHT22;52327;42.622;23.316;2023-08-01T01:53:54;19.30;69.18
65637;DHT22;52327;42.622;23.316;2023-08-01T01:56:19;19.36;68.21
65637;DHT22;52327;42.622;23.316;2023-08-01T01:58:45;19.25;68.93
65637;DHT22;52327;42.622;23.316;2023-08-01T02:01:10;19.22;68.94
65637;DHT22;52327;42.622;23.316;2023-08-01T02:03:36;19.25;69.27
65637;DHT22;52327;42.622;23.316;2023-08-01T02:06:02;19.32;68.96
65637;DHT22;52327;42.622;23.316;2023-08-01T02:08:29;19.38;68.38
65637;DHT22;52327;42.622;23.316;2023-08-01T02:10:54;19.35;68.38
65637;DHT22;52327;42.622;23.316;2023-08-01T02:13:26;19.66;65.67
65637;DHT22;52327;42.622;23.316;2023-08-01T02:15:53;19.52;67.32
65637;DHT22;52327;42.622;23.316;2023-08-01T02:18:19;19.38;68.15
65637;DHT22;52327;42.622;23.316;2023-08-01T02:20:44;19.28;68.64
65637;DHT22;52327;42.622;23.316;2023-08-01T02:23:10;19.54;67.68
65637;DHT22;52327;42.622;23.316;2023-08-01T02:25:39;19.45;67.86
65637;DHT22;52327;42.622;23.316;2023-08-01T02:28:05;19.10;68.27
65637;DHT22;52327;42.622;23.316;2023-08-01T02:30:31;19.10;68.18
65637;DHT22;52327;42.622;23.316;2023-08-01T02:32:56;18.99;69.16
65637;DHT22;52327;42.622;23.316;2023-08-01T02:35:22;19.15;67.18
65637;DHT22;52327;42.622;23.316;2023-08-01T02:37:47;19.08;67.98
65637;DHT22;52327;42.622;23.316;2023-08-01T02:40:13;18.99;68.52
65637;DHT22;52327;42.622;23.316;2023-08-01T02:42:38;18.91;67.10
65637;DHT22;52327;42.622;23.316;2023-08-01T02:45:04;18.71;67.70
65637;DHT22;52327;42.622;23.316;2023-08-01T02:47:30;18.67;68.03
65637;DHT22;52327;42.622;23.316;2023-08-01T02:49:55;18.67;67.46
65637;DHT22;52327;42.622;23.316;2023-08-01T02:52:23;18.55;67.60
65637;DHT22;52327;42.622;23.316;2023-08-01T02:54:48;18.36;67.05
65637;DHT22;52327;42.622;23.316;2023-08-01T02:57:14;18.25;68.31
65637;DHT22;52327;42.622;23.316;2023-08-01T02:59:39;18.25;68.42
65637;DHT22;52327;42.622;23.316;2023-08-01T03:02:05;18.18;69.10
65637;DHT22;52327;42.622;23.316;2023-08-01T03:04:30;18.10;69.43
65637;DHT22;52327;42.622;23.316;2023-08-01T03:06:56;18.21;68.88
65637;DHT22;52327;42.622;23.316;2023-08-01T03:09:21;18.21;68.35
65637;DHT22;52327;42.622;23.316;2023-08-01T03:11:47;18.02;68.25
65637;DHT22;52327;42.622;23.316;2023-08-01T03:14:12;17.85;68.59
65637;DHT22;52327;42.622;23.316;2023-08-01T03:16:38;17.88;68.33
65637;DHT22;52327;42.622;23.316;2023-08-01T03:19:03;17.84;68.10
65637;DHT22;52327;42.622;23.316;2023-08-01T03:21:33;17.77;68.34
65637;DHT22;52327;42.622;23.316;2023-08-01T03:24:06;17.60;68.85
65637;DHT22;52327;42.622;23.316;2023-08-01T03:26:35;17.57;68.33
65637;DHT22;52327;42.622;23.316;2023-08-01T03:29:00;17.74;67.65
65637;DHT22;52327;42.622;23.316;2023-08-01T03:31:26;17.89;67.64
65637;DHT22;52327;42.622;23.316;2023-08-01T03:33:51;18.02;66.53
65637;DHT22;52327;42.622;23.316;2023-08-01T03:36:17;18.12;65.47
65637;DHT22;52327;42.622;23.316;2023-08-01T03:38:42;18.35;65.78
65637;DHT22;52327;42.622;23.316;2023-08-01T03:41:08;18.33;65.72
65637;DHT22;52327;42.622;23.316;2023-08-01T03:43:34;18.35;65.86
65637;DHT22;52327;42.622;23.316;2023-08-01T03:46:00;18.24;66.27
65637;DHT22;52327;42.622;23.316;2023-08-01T03:48:25;18.21;66.65
65637;DHT22;52327;42.622;23.316;2023-08-01T03:50:50;18.33;65.42
65637;DHT22;52327;42.622;23.316;2023-08-01T03:53:16;18.39;65.39
65637;DHT22;52327;42.622;23.316;2023-08-01T03:55:44;18.64;65.18
65637;DHT22;52327;42.622;23.316;2023-08-01T03:58:09;18.56;66.00
65637;DHT22;52327;42.622;23.316;2023-08-01T04:00:35;18.56;66.35
65637;DHT22;52327;42.622;23.316;2023-08-01T04:03:01;18.73;65.61
65637;DHT22;52327;42.622;23.316;2023-08-01T04:05:27;18.66;66.80
65637;DHT22;52327;42.622;23.316;2023-08-01T04:07:53;18.67;67.06
65637;DHT22;52327;42.622;23.316;2023-08-01T04:10:21;18.80;66.92
65637;DHT22;52327;42.622;23.316;2023-08-01T04:12:46;18.94;66.57
65637;DHT22;52327;42.622;23.316;2023-08-01T04:15:12;18.94;66.25
65637;DHT22;52327;42.622;23.316;2023-08-01T04:17:37;18.91;65.84
65637;DHT22;52327;42.622;23.316;2023-08-01T04:20:03;18.86;65.55
65637;DHT22;52327;42.622;23.316;2023-08-01T04:22:29;18.87;64.98
65637;DHT22;52327;42.622;23.316;2023-08-01T04:24:54;18.97;66.02
65637;DHT22;52327;42.622;23.316;2023-08-01T04:27:20;19.06;66.05
65637;DHT22;52327;42.622;23.316;2023-08-01T04:29:45;19.06;66.01
65637;DHT22;52327;42.622;23.316;2023-08-01T04:32:11;19.00;66.52
65637;DHT22;52327;42.622;23.316;2023-08-01T04:34:39;18.93;69.46
65637;DHT22;52327;42.622;23.316;2023-08-01T04:37:04;18.94;69.44
65637;DHT22;52327;42.622;23.316;2023-08-01T04:39:30;19.01;68.76
65637;DHT22;52327;42.622;23.316;2023-08-01T04:41:56;18.86;69.41
65637;DHT22;52327;42.622;23.316;2023-08-01T04:44:21;18.81;70.98
65637;DHT22;52327;42.622;23.316;2023-08-01T04:46:48;18.86;71.12
65637;DHT22;52327;42.622;23.316;2023-08-01T04:49:13;18.90;71.09
65637;DHT22;52327;42.622;23.316;2023-08-01T04:51:38;19.03;70.86
65637;DHT22;52327;42.622;23.316;2023-08-01T04:54:04;19.12;70.30
65637;DHT22;52327;42.622;23.316;2023-08-01T04:56:29;19.20;69.46
65637;DHT22;52327;42.622;23.316;2023-08-01T04:58:55;19.24;69.23
65637;DHT22;52327;42.622;23.316;2023-08-01T05:01:20;19.55;67.19
65637;DHT22;52327;42.622;23.316;2023-08-01T05:03:46;19.41;67.98
65637;DHT22;52327;42.622;23.316;2023-08-01T05:06:11;19.48;68.02
65637;DHT22;52327;42.622;23.316;2023-08-01T05:08:37;19.51;67.56
65637;DHT22;52327;42.622;23.316;2023-08-01T05:11:02;19.41;67.12
65637;DHT22;52327;42.622;23.316;2023-08-01T05:13:27;19.35;67.20
65637;DHT22;52327;42.622;23.316;2023-08-01T05:15:53;19.49;66.66
65637;DHT22;52327;42.622;23.316;2023-08-01T05:18:19;19.59;66.83
65637;DHT22;52327;42.622;23.316;2023-08-01T05:20:44;19.59;68.14
65637;DHT22;52327;42.622;23.316;2023-08-01T05:23:10;19.62;66.44
65637;DHT22;52327;42.622;23.316;2023-08-01T05:25:35;19.66;66.29
65637;DHT22;52327;42.622;23.316;2023-08-01T05:28:01;19.69;66.74
65637;DHT22;52327;42.622;23.316;2023-08-01T05:30:26;19.78;67.51
65637;DHT22;52327;42.622;23.316;2023-08-01T05:32:52;19.69;66.66
65637;DHT22;52327;42.622;23.316;2023-08-01T05:35:19;19.79;67.43
65637;DHT22;52327;42.622;23.316;2023-08-01T05:37:44;19.28;66.61
65637;DHT22;52327;42.622;23.316;2023-08-01T05:40:10;19.28;67.29
65637;DHT22;52327;42.622;23.316;2023-08-01T05:42:36;19.42;67.64
65637;DHT22;52327;42.622;23.316;2023-08-01T05:45:01;19.58;67.50
65637;DHT22;52327;42.622;23.316;2023-08-01T05:47:27;19.58;67.93
65637;DHT22;52327;42.622;23.316;2023-08-01T05:49:52;19.78;67.39
65637;DHT22;52327;42.622;23.316;2023-08-01T05:52:18;19.96;67.13
65637;DHT22;52327;42.622;23.316;2023-08-01T05:54:43;20.17;65.81
65637;DHT22;52327;42.622;23.316;2023-08-01T05:57:08;20.27;65.06
65637;DHT22;52327;42.622;23.316;2023-08-01T05:59:34;20.37;64.99
65637;DHT22;52327;42.622;23.316;2023-08-01T06:01:59;20.53;64.95
65637;DHT22;52327;42.622;23.316;2023-08-01T06:04:25;20.43;62.71
65637;DHT22;52327;42.622;23.316;2023-08-01T06:06:50;20.36;62.33
65637;DHT22;52327;42.622;23.316;2023-08-01T06:09:16;20.14;63.21
65637;DHT22;52327;42.622;23.316;2023-08-01T06:11:41;20.12;63.61
65637;DHT22;52327;42.622;23.316;2023-08-01T06:14:07;19.79;64.65
65637;DHT22;52327;42.622;23.316;2023-08-01T06:16:32;19.99;63.95
65637;DHT22;52327;42.622;23.316;2023-08-01T06:18:58;20.23;62.84
65637;DHT22;52327;42.622;23.316;2023-08-01T06:21:24;20.13;62.93
65637;DHT22;52327;42.622;23.316;2023-08-01T06:23:49;20.17;62.96
65637;DHT22;52327;42.622;23.316;2023-08-01T06:26:15;20.12;62.87
65637;DHT22;52327;42.622;23.316;2023-08-01T06:28:41;19.94;62.84
65637;DHT22;52327;42.622;23.316;2023-08-01T06:31:06;20.14;62.22
65637;DHT22;52327;42.622;23.316;2023-08-01T06:33:32;20.22;62.03
65637;DHT22;52327;42.622;23.316;2023-08-01T06:35:57;20.24;61.80
65637;DHT22;52327;42.622;23.316;2023-08-01T06:38:23;20.34;61.26
65637;DHT22;52327;42.622;23.316;2023-08-01T06:40:48;20.43;61.86
65637;DHT22;52327;42.622;23.316;2023-08-01T06:43:14;20.61;61.75
65637;DHT22;52327;42.622;23.316;2023-08-01T06:45:39;20.60;61.28
65637;DHT22;52327;42.622;23.316;2023-08-01T06:48:05;20.85;61.02
65637;DHT22;52327;42.622;23.316;2023-08-01T06:50:30;20.63;61.37
65637;DHT22;52327;42.622;23.316;2023-08-01T06:52:56;20.67;61.23
65637;DHT22;52327;42.622;23.316;2023-08-01T06:55:21;20.74;60.84
65637;DHT22;52327;42.622;23.316;2023-08-01T06:57:47;20.98;60.52
65637;DHT22;52327;42.622;23.316;2023-08-01T07:00:12;21.19;60.05
65637;DHT22;52327;42.622;23.316;2023-08-01T07:02:38;21.29;59.50
65637;DHT22;52327;42.622;23.316;2023-08-01T07:05:03;21.12;59.66
65637;DHT22;52327;42.622;23.316;2023-08-01T07:07:30;21.18;59.64
65637;DHT22;52327;42.622;23.316;2023-08-01T07:09:55;21.22;59.51
65637;DHT22;52327;42.622;23.316;2023-08-01T07:12:21;21.09;59.51
65637;DHT22;52327;42.622;23.316;2023-08-01T07:14:46;21.21;58.87
65637;DHT22;52327;42.622;23.316;2023-08-01T07:17:12;21.21;58.49
65637;DHT22;52327;42.622;23.316;2023-08-01T07:19:37;20.88;59.86
65637;DHT22;52327;42.622;23.316;2023-08-01T07:22:03;21.16;59.11
65637;DHT22;52327;42.622;23.316;2023-08-01T07:24:28;21.35;59.05
65637;DHT22;52327;42.622;23.316;2023-08-01T07:26:54;21.55;58.20
65637;DHT22;52327;42.622;23.316;2023-08-01T07:29:19;21.69;58.05
65637;DHT22;52327;42.622;23.316;2023-08-01T07:31:44;21.94;57.02
65637;DHT22;52327;42.622;23.316;2023-08-01T07:34:11;22.06;57.05
65637;DHT22;52327;42.622;23.316;2023-08-01T07:36:36;22.22;56.90
65637;DHT22;52327;42.622;23.316;2023-08-01T07:39:02;22.10;55.98
65637;DHT22;52327;42.622;23.316;2023-08-01T07:41:28;22.07;56.44
65637;DHT22;52327;42.622;23.316;2023-08-01T07:43:54;22.33;56.41
65637;DHT22;52327;42.622;23.316;2023-08-01T07:46:19;22.54;55.55
65637;DHT22;52327;42.622;23.316;2023-08-01T07:48:44;22.34;56.54
65637;DHT22;52327;42.622;23.316;2023-08-01T07:51:10;22.20;56.33
65637;DHT22;52327;42.622;23.316;2023-08-01T07:53:37;21.87;56.60
65637;DHT22;52327;42.622;23.316;2023-08-01T07:56:02;22.07;57.84
65637;DHT22;52327;42.622;23.316;2023-08-01T07:58:29;21.97;56.33
65637;DHT22;52327;42.622;23.316;2023-08-01T08:00:55;22.20;56.64
65637;DHT22;52327;42.622;23.316;2023-08-01T08:03:20;22.31;56.31
65637;DHT22;52327;42.622;23.316;2023-08-01T08:05:49;22.61;55.71
65637;DHT22;52327;42.622;23.316;2023-08-01T08:08:14;22.38;55.77
65637;DHT22;52327;42.622;23.316;2023-08-01T08:10:40;22.61;55.69
65637;DHT22;52327;42.622;23.316;2023-08-01T08:13:05;22.59;55.50
65637;DHT22;52327;42.622;23.316;2023-08-01T08:15:31;22.89;55.35
65637;DHT22;52327;42.622;23.316;2023-08-01T08:18:00;23.26;54.07
65637;DHT22;52327;42.622;23.316;2023-08-01T08:20:26;23.47;53.95
65637;DHT22;52327;42.622;23.316;2023-08-01T08:22:51;23.27;53.31
65637;DHT22;52327;42.622;23.316;2023-08-01T08:25:17;23.13;53.53
65637;DHT22;52327;42.622;23.316;2023-08-01T08:27:42;23.05;54.51
65637;DHT22;52327;42.622;23.316;2023-08-01T08:30:08;23.46;53.77
65637;DHT22;52327;42.622;23.316;2023-08-01T08:32:35;23.91;52.45
65637;DHT22;52327;42.622;23.316;2023-08-01T08:35:01;23.91;53.34
65637;DHT22;52327;42.622;23.316;2023-08-01T08:37:26;23.80;52.25
65637;DHT22;52327;42.622;23.316;2023-08-01T08:39:51;23.54;52.64
65637;DHT22;52327;42.622;23.316;2023-08-01T08:42:20;23.70;52.75
65637;DHT22;52327;42.622;23.316;2023-08-01T08:44:49;23.89;52.81
65637;DHT22;52327;42.622;23.316;2023-08-01T08:47:17;23.81;52.29
65637;DHT22;52327;42.622;23.316;2023-08-01T08:49:45;24.12;51.71
65637;DHT22;52327;42.622;23.316;2023-08-01T08:52:11;24.18;51.40
65637;DHT22;52327;42.622;23.316;2023-08-01T08:54:37;24.36;51.39
65637;DHT22;52327;42.622;23.316;2023-08-01T08:57:07;24.48;51.34
65637;DHT22;52327;42.622;23.316;2023-08-01T08:59:33;24.63;52.34
65637;DHT22;52327;42.622;23.316;2023-08-01T09:01:58;24.72;50.30
65637;DHT22;52327;42.622;23.316;2023-08-01T09:04:27;24.72;50.83
65637;DHT22;52327;42.622;23.316;2023-08-01T09:06:55;24.69;50.63
65637;DHT22;52327;42.622;23.316;2023-08-01T09:09:23;24.68;50.69
65637;DHT22;52327;42.622;23.316;2023-08-01T09:11:52;24.19;51.01
65637;DHT22;52327;42.622;23.316;2023-08-01T09:14:19;24.42;51.36
65637;DHT22;52327;42.622;23.316;2023-08-01T09:16:45;24.65;51.23
65637;DHT22;52327;42.622;23.316;2023-08-01T09:19:19;24.82;50.93
65637;DHT22;52327;42.622;23.316;2023-08-01T09:21:45;24.47;51.30
65637;DHT22;52327;42.622;23.316;2023-08-01T09:26:38;24.39;51.32
65637;DHT22;52327;42.622;23.316;2023-08-01T09:29:04;24.48;51.57
65637;DHT22;52327;42.622;23.316;2023-08-01T09:31:34;24.43;51.29
65637;DHT22;52327;42.622;23.316;2023-08-01T09:34:01;24.63;50.74
65637;DHT22;52327;42.622;23.316;2023-08-01T09:36:29;24.91;49.62
65637;DHT22;52327;42.622;23.316;2023-08-01T09:38:59;24.89;50.39
65637;DHT22;52327;42.622;23.316;2023-08-01T09:41:25;24.89;50.92
65637;DHT22;52327;42.622;23.316;2023-08-01T09:43:52;24.77;51.50
65637;DHT22;52327;42.622;23.316;2023-08-01T09:46:17;24.93;50.00
65637;DHT22;52327;42.622;23.316;2023-08-01T09:48:44;24.72;50.64
65637;DHT22;52327;42.622;23.316;2023-08-01T09:51:10;24.59;50.58
65637;DHT22;52327;42.622;23.316;2023-08-01T09:53:52;24.94;50.12
65637;DHT22;52327;42.622;23.316;2023-08-01T09:56:26;25.34;50.17
65637;DHT22;52327;42.622;23.316;2023-08-01T09:58:53;25.50;49.66
65637;DHT22;52327;42.622;23.316;2023-08-01T10:01:23;25.72;50.09
65637;DHT22;52327;42.622;23.316;2023-08-01T10:03:51;26.01;49.21
65637;DHT22;52327;42.622;23.316;2023-08-01T10:06:21;25.65;48.23
65637;DHT22;52327;42.622;23.316;2023-08-01T10:08:48;25.37;48.86
65637;DHT22;52327;42.622;23.316;2023-08-01T10:11:16;25.21;50.34
65637;DHT22;52327;42.622;23.316;2023-08-01T10:13:43;25.54;50.00
65637;DHT22;52327;42.622;23.316;2023-08-01T10:16:09;26.12;47.48
65637;DHT22;52327;42.622;23.316;2023-08-01T10:18:36;26.32;47.87
65637;DHT22;52327;42.622;23.316;2023-08-01T10:21:07;26.43;47.29
65637;DHT22;52327;42.622;23.316;2023-08-01T10:23:33;26.76;47.44
65637;DHT22;52327;42.622;23.316;2023-08-01T10:26:02;26.90;47.00
65637;DHT22;52327;42.622;23.316;2023-08-01T10:28:35;26.81;46.33
65637;DHT22;52327;42.622;23.316;2023-08-01T10:31:13;26.60;46.20
65637;DHT22;52327;42.622;23.316;2023-08-01T10:33:39;26.08;47.23
65637;DHT22;52327;42.622;23.316;2023-08-01T10:36:22;25.89;47.91
65637;DHT22;52327;42.622;23.316;2023-08-01T10:38:56;25.93;48.11
65637;DHT22;52327;42.622;23.316;2023-08-01T10:41:32;26.32;47.60
65637;DHT22;52327;42.622;23.316;2023-08-01T10:44:11;26.67;46.41
65637;DHT22;52327;42.622;23.316;2023-08-01T10:49:12;26.70;46.99
65637;DHT22;52327;42.622;23.316;2023-08-01T10:51:38;26.54;44.77
65637;DHT22;52327;42.622;23.316;2023-08-01T10:54:04;26.80;44.23
65637;DHT22;52327;42.622;23.316;2023-08-01T10:56:29;27.04;44.27
65637;DHT22;52327;42.622;23.316;2023-08-01T10:58:57;27.34;44.56
65637;DHT22;52327;42.622;23.316;2023-08-01T11:01:23;27.35;44.36
65637;DHT22;52327;42.622;23.316;2023-08-01T11:03:49;27.48;44.71
65637;DHT22;52327;42.622;23.316;2023-08-01T11:06:15;27.81;42.18
65637;DHT22;52327;42.622;23.316;2023-08-01T11:08:41;27.90;43.33
65637;DHT22;52327;42.622;23.316;2023-08-01T11:11:11;27.82;43.60
65637;DHT22;52327;42.622;23.316;2023-08-01T11:13:37;27.85;42.92
65637;DHT22;52327;42.622;23.316;2023-08-01T11:16:05;27.65;42.91
65637;DHT22;52327;42.622;23.316;2023-08-01T11:18:44;27.89;42.42
65637;DHT22;52327;42.622;23.316;2023-08-01T11:21:09;27.65;45.18
65637;DHT22;52327;42.622;23.316;2023-08-01T11:23:35;27.79;43.07
65637;DHT22;52327;42.622;23.316;2023-08-01T11:26:07;27.97;42.43
65637;DHT22;52327;42.622;23.316;2023-08-01T11:28:33;27.97;42.09
65637;DHT22;52327;42.622;23.316;2023-08-01T11:30:58;27.93;41.16
65637;DHT22;52327;42.622;23.316;2023-08-01T11:33:24;27.59;41.44
65637;DHT22;52327;42.622;23.316;2023-08-01T11:35:51;27.32;41.01
65637;DHT22;52327;42.622;23.316;2023-08-01T11:38:17;27.59;41.14
65637;DHT22;52327;42.622;23.316;2023-08-01T11:40:43;27.79;40.63
65637;DHT22;52327;42.622;23.316;2023-08-01T11:43:09;28.14;40.41
65637;DHT22;52327;42.622;23.316;2023-08-01T11:45:34;28.09;39.77
65637;DHT22;52327;42.622;23.316;2023-08-01T11:48:01;28.36;39.37
65637;DHT22;52327;42.622;23.316;2023-08-01T11:50:27;28.69;40.57
65637;DHT22;52327;42.622;23.316;2023-08-01T11:52:52;29.23;38.18
65637;DHT22;52327;42.622;23.316;2023-08-01T11:55:22;29.19;37.50
65637;DHT22;52327;42.622;23.316;2023-08-01T11:57:52;29.05;37.00
65637;DHT22;52327;42.622;23.316;2023-08-01T12:00:28;29.19;36.23
65637;DHT22;52327;42.622;23.316;2023-08-01T12:03:04;29.72;37.22
65637;DHT22;52327;42.622;23.316;2023-08-01T12:05:31;30.18;38.18
65637;DHT22;52327;42.622;23.316;2023-08-01T12:08:07;30.45;36.10
65637;DHT22;52327;42.622;23.316;2023-08-01T12:10:37;31.08;34.95
65637;DHT22;52327;42.622;23.316;2023-08-01T12:13:03;31.41;33.23
65637;DHT22;52327;42.622;23.316;2023-08-01T12:15:28;32.04;33.45
65637;DHT22;52327;42.622;23.316;2023-08-01T12:17:54;32.39;31.59
65637;DHT22;52327;42.622;23.316;2023-08-01T12:20:19;32.58;31.45
65637;DHT22;52327;42.622;23.316;2023-08-01T12:22:45;32.39;32.15
65637;DHT22;52327;42.622;23.316;2023-08-01T12:25:10;32.78;31.98
65637;DHT22;52327;42.622;23.316;2023-08-01T12:27:35;33.19;31.73
65637;DHT22;52327;42.622;23.316;2023-08-01T12:30:01;33.26;30.37
65637;DHT22;52327;42.622;23.316;2023-08-01T12:32:26;32.86;31.31
65637;DHT22;52327;42.622;23.316;2023-08-01T12:34:52;32.98;31.99
65637;DHT22;52327;42.622;23.316;2023-08-01T12:37:17;33.90;29.24
65637;DHT22;52327;42.622;23.316;2023-08-01T12:39:43;34.59;28.20
65637;DHT22;52327;42.622;23.316;2023-08-01T12:42:08;34.96;27.67
65637;DHT22;52327;42.622;23.316;2023-08-01T12:44:33;35.20;27.58
65637;DHT22;52327;42.622;23.316;2023-08-01T12:46:59;35.31;25.95
65637;DHT22;52327;42.622;23.316;2023-08-01T12:49:25;34.62;26.73
65637;DHT22;52327;42.622;23.316;2023-08-01T12:51:50;34.78;27.27
65637;DHT22;52327;42.622;23.316;2023-08-01T12:54:15;34.72;26.87
65637;DHT22;52327;42.622;23.316;2023-08-01T12:56:41;34.78;26.69
65637;DHT22;52327;42.622;23.316;2023-08-01T12:59:06;34.64;26.11
65637;DHT22;52327;42.622;23.316;2023-08-01T13:01:32;35.23;25.80
65637;DHT22;52327;42.622;23.316;2023-08-01T13:03:57;35.80;24.84
65637;DHT22;52327;42.622;23.316;2023-08-01T13:06:23;36.26;24.17
65637;DHT22;52327;42.622;23.316;2023-08-01T13:08:48;36.72;23.46
65637;DHT22;52327;42.622;23.316;2023-08-01T13:11:14;36.94;23.83
65637;DHT22;52327;42.622;23.316;2023-08-01T13:13:41;37.34;23.81
65637;DHT22;52327;42.622;23.316;2023-08-01T13:16:06;37.37;24.28
65637;DHT22;52327;42.622;23.316;2023-08-01T13:18:32;37.84;23.94
65637;DHT22;52327;42.622;23.316;2023-08-01T13:20:57;37.75;22.98
65637;DHT22;52327;42.622;23.316;2023-08-01T13:23:25;37.92;22.81
65637;DHT22;52327;42.622;23.316;2023-08-01T13:25:50;37.92;23.26
65637;DHT22;52327;42.622;23.316;2023-08-01T13:28:16;37.65;23.31
65637;DHT22;52327;42.622;23.316;2023-08-01T13:30:41;37.48;23.40
65637;DHT22;52327;42.622;23.316;2023-08-01T13:33:07;37.35;24.10
65637;DHT22;52327;42.622;23.316;2023-08-01T13:35:32;36.95;24.02
65637;DHT22;52327;42.622;23.316;2023-08-01T13:37:58;36.37;24.60
65637;DHT22;52327;42.622;23.316;2023-08-01T13:40:25;36.64;24.63
65637;DHT22;52327;42.622;23.316;2023-08-01T13:42:50;36.84;24.05
65637;DHT22;52327;42.622;23.316;2023-08-01T13:45:16;36.08;24.92
65637;DHT22;52327;42.622;23.316;2023-08-01T13:47:42;35.81;25.19
65637;DHT22;52327;42.622;23.316;2023-08-01T13:50:07;35.92;24.90
65637;DHT22;52327;42.622;23.316;2023-08-01T13:52:34;36.13;24.51
65637;DHT22;52327;42.622;23.316;2023-08-01T13:54:59;36.39;24.40
65637;DHT22;52327;42.622;23.316;2023-08-01T13:57:27;36.76;24.07
65637;DHT22;52327;42.622;23.316;2023-08-01T13:59:53;36.86;23.94
65637;DHT22;52327;42.622;23.316;2023-08-01T14:02:19;36.93;24.06
65637;DHT22;52327;42.622;23.316;2023-08-01T14:04:44;37.33;23.08
65637;DHT22;52327;42.622;23.316;2023-08-01T14:07:09;37.60;22.70
65637;DHT22;52327;42.622;23.316;2023-08-01T14:09:35;37.51;22.28
65637;DHT22;52327;42.622;23.316;2023-08-01T14:12:03;37.37;22.05
65637;DHT22;52327;42.622;23.316;2023-08-01T14:14:29;37.11;22.43
65637;DHT22;52327;42.622;23.316;2023-08-01T14:16:54;36.83;22.77
65637;DHT22;52327;42.622;23.316;2023-08-01T14:19:20;37.24;22.73
65637;DHT22;52327;42.622;23.316;2023-08-01T14:21:45;37.72;21.85
65637;DHT22;52327;42.622;23.316;2023-08-01T14:24:11;37.66;22.07
65637;DHT22;52327;42.622;23.316;2023-08-01T14:26:36;37.60;22.07
65637;DHT22;52327;42.622;23.316;2023-08-01T14:29:01;37.24;22.26
65637;DHT22;52327;42.622;23.316;2023-08-01T14:31:27;37.08;23.14
65637;DHT22;52327;42.622;23.316;2023-08-01T14:33:53;36.44;23.48
65637;DHT22;52327;42.622;23.316;2023-08-01T14:36:18;36.32;22.98
65637;DHT22;52327;42.622;23.316;2023-08-01T14:38:43;35.50;23.73
65637;DHT22;52327;42.622;23.316;2023-08-01T14:41:09;35.17;23.95
65637;DHT22;52327;42.622;23.316;2023-08-01T14:43:34;35.08;24.36
65637;DHT22;52327;42.622;23.316;2023-08-01T14:46:01;34.60;25.25
65637;DHT22;52327;42.622;23.316;2023-08-01T14:48:26;34.02;27.34
65637;DHT22;52327;42.622;23.316;2023-08-01T14:50:52;33.61;28.81
65637;DHT22;52327;42.622;23.316;2023-08-01T14:53:17;33.70;28.38
65637;DHT22;52327;42.622;23.316;2023-08-01T14:55:43;33.50;28.30
65637;DHT22;52327;42.622;23.316;2023-08-01T14:58:08;33.78;27.12
65637;DHT22;52327;42.622;23.316;2023-08-01T15:00:35;33.68;26.26
65637;DHT22;52327;42.622;23.316;2023-08-01T15:03:01;33.55;26.97
65637;DHT22;52327;42.622;23.316;2023-08-01T15:05:26;33.27;28.79
65637;DHT22;52327;42.622;23.316;2023-08-01T15:07:51;33.23;29.74
65637;DHT22;52327;42.622;23.316;2023-08-01T15:10:17;33.03;29.72
65637;DHT22;52327;42.622;23.316;2023-08-01T15:12:42;33.14;30.50
65637;DHT22;52327;42.622;23.316;2023-08-01T15:15:08;32.89;30.81